Time;durP1;ratioP1;P1;durP2;ratioP2;P2;SDS_P1;SDS_P2;PMS_P1;PMS_P2;Temp;Humidity;BMP_temperature;BMP_pressure;BME280_temperature;BME280_humidity;BME280_pressure;Samples;Min_cycle;Max_cycle;Signal;HPM_P1;HPM_P2
2023/11/28 00:02:11;;;;;;;8.50;5.60;;;;;;;4.23;79.12;99599.47;5115781;28;20043;-65
2023/11/28 00:04:36;;;;;;;6.13;4.53;;;;;;;4.23;78.43;99607.34;5114911;28;20031;-66
2023/11/28 00:07:02;;;;;;;8.88;4.43;;;;;;;4.36;78.01;99615.03;5115579;28;20031;-64
2023/11/28 00:09:27;;;;;;;9.80;6.25;;;;;;;4.32;78.10;99613.63;5115183;28;20027;-65
2023/11/28 00:11:53;;;;;;;8.93;5.70;;;;;;;4.11;79.68;99608.31;5115312;28;20024;-66
2023/11/28 00:14:18;;;;;;;9.38;5.60;;;;;;;4.11;80.13;99605.69;5116215;28;20043;-66
2023/11/28 00:16:44;;;;;;;11.07;6.68;;;;;;;4.01;80.53;99607.38;5116063;28;20019;-65
2023/11/28 00:19:09;;;;;;;14.98;8.90;;;;;;;4.04;80.72;99599.28;5116554;28;20232;-64
2023/11/28 00:21:35;;;;;;;14.23;7.85;;;;;;;4.05;80.89;99603.56;5115980;28;20061;-65
2023/11/28 00:24:02;;;;;;;16.52;8.77;;;;;;;3.96;81.39;99586.81;5115710;28;20034;-66
2023/11/28 00:26:27;;;;;;;8.57;6.25;;;;;;;3.09;83.05;99535.28;5115149;28;20043;-66
2023/11/28 00:28:53;;;;;;;8.93;5.65;;;;;;;3.24;82.53;99569.91;5115441;28;20098;-64
2023/11/28 00:31:20;;;;;;;8.10;5.80;;;;;;;3.37;82.62;99573.25;5114773;28;20043;-64
2023/11/28 00:33:46;;;;;;;10.40;6.25;;;;;;;3.57;82.51;99577.72;5114664;28;20302;-63
2023/11/28 00:36:15;;;;;;;9.52;6.15;;;;;;;3.71;82.56;99581.88;5114378;28;20275;-65
2023/11/28 00:38:40;;;;;;;8.57;6.13;;;;;;;3.83;82.42;99570.41;5115746;28;20035;-65
2023/11/28 00:41:06;;;;;;;10.32;5.85;;;;;;;3.79;82.49;99572.44;5113882;28;20046;-64
2023/11/28 00:43:32;;;;;;;13.35;7.95;;;;;;;3.86;81.39;99559.69;5114140;28;20102;-64
2023/11/28 00:45:57;;;;;;;23.23;13.40;;;;;;;3.82;81.34;99561.72;5114127;28;20284;-65
2023/11/28 00:48:22;;;;;;;13.30;8.40;;;;;;;3.71;81.84;99561.75;5114233;28;20362;-65
2023/11/28 00:50:48;;;;;;;22.40;13.45;;;;;;;3.81;80.49;99569.69;5114529;28;20225;-63
2023/11/28 00:53:14;;;;;;;18.17;11.52;;;;;;;3.63;79.50;99565.94;5114440;28;20023;-64
2023/11/28 00:55:39;;;;;;;18.58;11.15;;;;;;;3.35;80.36;99556.81;5114933;28;20061;-64
2023/11/28 00:58:04;;;;;;;11.85;8.98;;;;;;;3.35;81.61;99549.81;5114545;28;20064;-65
2023/11/28 01:00:30;;;;;;;13.65;10.50;;;;;;;3.27;82.68;99553.97;5118144;28;20440;-65
2023/11/28 01:02:55;;;;;;;12.63;6.57;;;;;;;3.11;84.06;99559.53;5118012;28;20258;-64
2023/11/28 01:05:21;;;;;;;12.70;7.10;;;;;;;3.14;84.99;99559.34;5118022;28;20046;-64
2023/11/28 01:07:46;;;;;;;19.30;11.60;;;;;;;3.36;83.96;99553.25;5117748;28;20027;-64
2023/11/28 01:10:12;;;;;;;23.73;10.68;;;;;;;3.45;83.78;99550.75;5117851;28;20050;-65
2023/11/28 01:12:37;;;;;;;18.65;11.77;;;;;;;3.30;83.84;99541.47;5117656;28;20039;-65
2023/11/28 01:15:03;;;;;;;28.85;17.63;;;;;;;3.27;84.60;99533.03;5117741;28;20096;-64
2023/11/28 01:17:29;;;;;;;28.50;15.50;;;;;;;3.40;84.36;99545.03;5117757;28;20035;-64
2023/11/28 01:19:54;;;;;;;90.82;36.28;;;;;;;3.46;84.16;99551.56;5118077;28;20348;-66
2023/11/28 01:22:19;;;;;;;26.63;14.35;;;;;;;3.57;83.73;99543.69;5117899;28;20317;-66
2023/11/28 01:24:45;;;;;;;24.73;13.20;;;;;;;3.60;83.14;99525.13;5117548;28;20035;-64
2023/11/28 01:27:10;;;;;;;20.17;11.27;;;;;;;3.76;82.59;99537.81;5117378;28;20028;-63
2023/11/28 01:29:36;;;;;;;21.33;11.35;;;;;;;3.88;82.26;99525.50;5117434;28;20035;-64
2023/11/28 01:32:03;;;;;;;16.50;10.30;;;;;;;3.95;81.93;99519.66;5117733;28;20023;-64
2023/11/28 01:34:28;;;;;;;32.88;15.30;;;;;;;3.83;82.25;99511.00;5117024;28;20078;-65
2023/11/28 01:36:53;;;;;;;16.23;10.07;;;;;;;3.87;82.13;99505.50;5117551;28;20028;-65
2023/11/28 01:39:19;;;;;;;13.70;8.32;;;;;;;3.93;81.14;99503.22;5117664;28;20777;-64
2023/11/28 01:41:48;;;;;;;17.38;10.05;;;;;;;3.76;82.16;99514.25;5117277;28;20474;-64
2023/11/28 01:44:14;;;;;;;16.35;9.65;;;;;;;3.84;82.44;99503.97;5117506;28;20032;-63
2023/11/28 01:46:41;;;;;;;24.25;17.48;;;;;;;3.94;82.16;99493.56;5117816;28;20264;-64
2023/11/28 01:49:07;;;;;;;38.08;16.23;;;;;;;3.99;82.11;99492.25;5116918;28;20273;-64
2023/11/28 01:51:37;;;;;;;45.17;18.55;;;;;;;4.04;81.54;99486.63;5117189;28;20031;-63
2023/11/28 01:54:04;;;;;;;40.05;17.25;;;;;;;4.00;81.44;99477.34;5117582;28;20103;-63
2023/11/28 01:56:30;;;;;;;41.25;17.23;;;;;;;4.00;81.86;99479.97;5117362;28;20070;-61
2023/11/28 01:58:57;;;;;;;21.10;10.77;;;;;;;4.01;81.69;99479.84;5117322;28;20039;-62
2023/11/28 02:01:23;;;;;;;17.80;8.93;;;;;;;4.01;81.11;99485.09;5118518;28;20042;-62
2023/11/28 02:03:49;;;;;;;24.15;11.70;;;;;;;3.95;81.49;99475.13;5117002;27;20027;-64
2023/11/28 02:06:15;;;;;;;16.08;8.25;;;;;;;3.98;81.08;99469.63;5116614;28;20046;-62
2023/11/28 02:08:41;;;;;;;15.65;7.82;;;;;;;4.01;80.15;99472.00;5116673;28;20027;-62
2023/11/28 02:11:07;;;;;;;12.13;8.00;;;;;;;3.95;80.65;99471.66;5117111;28;20131;-62
2023/11/28 02:13:32;;;;;;;13.02;6.82;;;;;;;3.67;81.69;99473.09;5116993;28;20312;-64
2023/11/28 02:15:58;;;;;;;16.85;8.60;;;;;;;3.61;82.51;99463.13;5116825;28;20047;-64
2023/11/28 02:18:24;;;;;;;14.65;9.30;;;;;;;3.67;82.21;99460.84;5116503;28;20029;-62
2023/11/28 02:20:50;;;;;;;11.95;8.43;;;;;;;3.60;81.42;99458.84;5116996;28;20040;-62
2023/11/28 02:23:17;;;;;;;12.48;7.50;;;;;;;3.65;81.85;99446.22;5117655;28;20032;-63
2023/11/28 02:25:50;;;;;;;8.57;6.43;;;;;;;3.87;81.17;99461.81;5117277;28;20032;-62
2023/11/28 02:28:21;;;;;;;9.73;6.20;;;;;;;4.02;80.96;99470.19;5116682;28;20284;-64
2023/11/28 02:30:48;;;;;;;8.18;6.03;;;;;;;4.11;80.58;99470.25;5116657;28;20047;-64
2023/11/28 02:33:14;;;;;;;9.02;6.30;;;;;;;4.08;81.04;99457.41;5116688;28;20031;-62
2023/11/28 02:35:40;;;;;;;7.63;5.60;;;;;;;4.18;80.97;99452.28;5116383;28;20067;-62
2023/11/28 02:38:05;;;;;;;10.57;6.65;;;;;;;4.26;81.17;99449.84;5116584;28;20039;-64
2023/11/28 02:40:30;;;;;;;10.52;6.47;;;;;;;4.31;81.82;99449.44;5116683;28;20080;-64
2023/11/28 02:42:56;;;;;;;10.88;6.38;;;;;;;4.36;82.10;99447.28;5116394;28;20031;-63
2023/11/28 02:45:21;;;;;;;8.90;6.05;;;;;;;4.40;82.01;99440.81;5116449;28;20039;-62
2023/11/28 02:47:47;;;;;;;9.15;6.32;;;;;;;4.37;80.83;99439.28;5117043;28;20028;-64
2023/11/28 02:50:12;;;;;;;9.50;6.80;;;;;;;4.33;81.39;99439.66;5117075;28;20043;-63
2023/11/28 02:52:40;;;;;;;8.73;6.38;;;;;;;4.39;80.86;99447.84;5116945;28;20049;-64
2023/11/28 02:55:06;;;;;;;11.45;7.60;;;;;;;4.29;81.52;99440.88;5117143;28;20067;-62
2023/11/28 02:57:32;;;;;;;9.23;6.20;;;;;;;4.25;82.29;99437.69;5116590;28;20259;-62
2023/11/28 02:59:57;;;;;;;8.77;6.68;;;;;;;4.37;81.82;99438.44;5116752;28;20032;-63
2023/11/28 03:02:23;;;;;;;9.13;5.90;;;;;;;4.36;81.77;99444.66;5115961;28;20039;-63
2023/11/28 03:04:48;;;;;;;11.80;6.65;;;;;;;4.27;81.74;99448.88;5116408;28;20248;-64
2023/11/28 03:07:14;;;;;;;9.00;6.95;;;;;;;4.23;82.49;99433.53;5116897;28;20035;-64
2023/11/28 03:09:41;;;;;;;12.48;6.70;;;;;;;4.22;82.90;99424.84;5116751;28;20425;-63
2023/11/28 03:12:07;;;;;;;9.85;6.80;;;;;;;4.25;82.80;99416.72;5116399;28;20039;-63
2023/11/28 03:14:32;;;;;;;8.32;6.22;;;;;;;4.41;82.59;99424.94;5116048;28;20088;-62
2023/11/28 03:16:58;;;;;;;12.32;7.97;;;;;;;4.45;82.85;99422.91;5116818;28;20039;-63
2023/11/28 03:19:23;;;;;;;11.68;7.95;;;;;;;4.44;82.38;99393.22;5116511;28;20250;-63
2023/11/28 03:21:49;;;;;;;11.55;6.75;;;;;;;4.49;82.24;99404.16;5116210;28;20039;-62
2023/11/28 03:24:14;;;;;;;12.77;8.15;;;;;;;4.33;82.66;99397.72;5117265;28;20325;-63
2023/11/28 03:26:40;;;;;;;12.82;7.50;;;;;;;4.00;85.00;99399.59;5116535;28;20116;-63
2023/11/28 03:29:05;;;;;;;9.77;7.32;;;;;;;4.16;84.63;99384.28;5116336;28;20240;-63
2023/11/28 03:31:30;;;;;;;10.18;7.32;;;;;;;4.24;84.70;99373.13;5116139;28;20369;-64
2023/11/28 03:33:56;;;;;;;11.02;6.97;;;;;;;4.23;84.09;99368.03;5116522;28;20077;-62
2023/11/28 03:36:22;;;;;;;14.05;7.68;;;;;;;4.03;84.16;99356.59;5116897;28;20031;-62
2023/11/28 03:38:48;;;;;;;14.65;7.78;;;;;;;3.87;84.98;99348.38;5116138;28;20181;-62
2023/11/28 03:41:14;;;;;;;19.10;10.88;;;;;;;3.72;85.88;99353.09;5116300;27;20039;-65
2023/11/28 03:43:39;;;;;;;18.77;11.90;;;;;;;3.41;87.51;99350.41;5116403;28;20061;-64
2023/11/28 03:46:05;;;;;;;19.65;11.35;;;;;;;3.54;87.39;99358.06;5115976;28;20061;-63
2023/11/28 03:48:30;;;;;;;27.33;14.02;;;;;;;3.60;87.22;99365.41;5115224;28;20252;-62
2023/11/28 03:50:55;;;;;;;24.63;14.73;;;;;;;3.59;87.71;99355.91;5115574;28;20048;-62
2023/11/28 03:53:22;;;;;;;21.10;12.13;;;;;;;3.46;88.60;99355.25;5116194;28;20259;-64
2023/11/28 03:55:48;;;;;;;22.65;11.75;;;;;;;3.50;89.00;99359.28;5116111;28;20682;-65
2023/11/28 03:58:13;;;;;;;18.45;11.07;;;;;;;3.60;88.57;99365.41;5114947;28;20039;-63
2023/11/28 04:00:40;;;;;;;16.83;9.45;;;;;;;3.43;89.15;99360.75;5115690;28;20065;-63
2023/11/28 04:03:06;;;;;;;16.77;10.25;;;;;;;3.39;89.97;99373.25;5115192;28;20393;-63
2023/11/28 04:05:31;;;;;;;17.08;9.93;;;;;;;3.39;89.37;99378.50;5115671;28;20064;-64
2023/11/28 04:07:56;;;;;;;16.05;9.85;;;;;;;3.47;89.44;99375.25;5115572;28;20050;-62
2023/11/28 04:10:22;;;;;;;16.13;9.35;;;;;;;3.68;88.09;99370.84;5115797;28;20064;-62
2023/11/28 04:12:47;;;;;;;16.08;9.30;;;;;;;3.81;86.98;99366.25;5115981;28;20032;-62
2023/11/28 04:15:13;;;;;;;17.85;10.07;;;;;;;3.90;86.35;99361.19;5131683;28;20036;-66
2023/11/28 04:17:38;;;;;;;18.77;10.07;;;;;;;3.99;85.81;99365.66;5116102;28;20043;-64
2023/11/28 04:20:06;;;;;;;17.02;9.93;;;;;;;3.98;84.96;99366.63;5116238;28;20313;-63
2023/11/28 04:22:31;;;;;;;15.77;9.55;;;;;;;4.12;84.27;99371.53;5115593;28;20084;-62
2023/11/28 04:24:57;;;;;;;18.33;9.88;;;;;;;4.19;84.37;99359.59;5115637;28;20035;-64
2023/11/28 04:27:22;;;;;;;17.38;9.77;;;;;;;4.22;83.69;99361.13;5116463;28;20036;-64
2023/11/28 04:29:48;;;;;;;17.02;9.77;;;;;;;4.20;83.88;99350.78;5115556;28;20043;-62
2023/11/28 04:32:13;;;;;;;14.93;9.82;;;;;;;4.18;83.73;99333.53;5115682;28;20040;-63
2023/11/28 04:34:38;;;;;;;15.90;10.25;;;;;;;4.10;83.50;99334.97;5118927;28;20371;-63
2023/11/28 04:37:04;;;;;;;18.30;10.15;;;;;;;4.08;84.65;99322.97;5118935;27;20039;-64
2023/11/28 04:39:29;;;;;;;16.15;9.75;;;;;;;4.15;84.07;99322.31;5118621;28;20040;-64
2023/11/28 04:41:55;;;;;;;18.08;11.30;;;;;;;4.22;83.97;99317.41;5118531;28;20031;-62
2023/11/28 04:44:20;;;;;;;15.55;9.90;;;;;;;4.24;83.09;99302.38;5118774;28;20104;-64
2023/11/28 04:46:46;;;;;;;12.88;8.27;;;;;;;4.10;83.00;99306.16;5118121;28;20023;-63
2023/11/28 04:49:12;;;;;;;13.48;8.00;;;;;;;4.16;82.74;99305.66;5117966;28;20063;-64
2023/11/28 04:51:38;;;;;;;13.25;8.45;;;;;;;4.23;83.37;99300.72;5118451;28;20027;-62
2023/11/28 04:54:04;;;;;;;15.35;9.32;;;;;;;4.29;82.71;99302.81;5118736;28;20031;-63
2023/11/28 04:56:30;;;;;;;15.93;10.57;;;;;;;4.28;82.14;99301.16;5118699;28;20438;-62
2023/11/28 04:58:55;;;;;;;14.23;9.50;;;;;;;4.16;83.26;99295.19;5118573;28;20039;-64
2023/11/28 05:01:21;;;;;;;17.15;8.65;;;;;;;4.16;83.86;99303.03;5118288;28;20036;-64
2023/11/28 05:03:46;;;;;;;15.95;9.45;;;;;;;4.29;83.49;99296.75;5117665;28;20031;-63
2023/11/28 05:06:12;;;;;;;13.13;8.52;;;;;;;4.34;82.65;99303.25;5118358;28;20277;-62
2023/11/28 05:08:37;;;;;;;11.50;8.07;;;;;;;4.38;81.69;99304.63;5118046;28;20101;-62
2023/11/28 05:11:06;;;;;;;16.55;10.18;;;;;;;4.40;82.17;99294.84;5118405;28;20378;-64
2023/11/28 05:13:33;;;;;;;17.65;12.70;;;;;;;4.38;82.23;99277.59;5118449;28;20031;-63
2023/11/28 05:15:59;;;;;;;18.50;11.77;;;;;;;4.43;81.56;99278.00;5118482;28;20074;-63
2023/11/28 05:18:24;;;;;;;20.42;12.40;;;;;;;4.44;81.96;99274.44;5118599;28;20229;-62
2023/11/28 05:20:50;;;;;;;18.65;12.43;;;;;;;4.43;82.94;99270.16;5118408;28;20027;-63
2023/11/28 05:23:15;;;;;;;16.55;9.93;;;;;;;4.29;83.64;99262.66;5118547;28;20068;-64
2023/11/28 05:25:41;;;;;;;15.50;10.05;;;;;;;4.06;84.20;99260.22;5118220;28;20039;-64
2023/11/28 05:28:07;;;;;;;13.40;8.70;;;;;;;3.71;85.04;99251.94;5116343;28;20032;-62
2023/11/28 05:30:32;;;;;;;13.35;8.55;;;;;;;3.71;85.47;99259.78;5117561;28;20414;-62
2023/11/28 05:32:57;;;;;;;14.63;10.07;;;;;;;3.94;85.66;99257.81;5117398;28;20339;-64
2023/11/28 05:35:23;;;;;;;15.43;8.68;;;;;;;4.00;85.50;99252.88;5118280;28;20118;-64
2023/11/28 05:37:48;;;;;;;14.68;9.82;;;;;;;3.90;85.61;99248.56;5117706;28;20031;-63
2023/11/28 05:40:15;;;;;;;13.30;9.10;;;;;;;3.99;84.74;99253.03;5118315;27;20307;-63
2023/11/28 05:42:41;;;;;;;13.13;8.68;;;;;;;4.09;84.09;99266.97;5118091;28;20035;-63
2023/11/28 05:45:07;;;;;;;15.02;9.50;;;;;;;4.25;83.17;99269.13;5117434;28;20055;-64
2023/11/28 05:47:33;;;;;;;14.85;8.80;;;;;;;4.27;82.57;99261.97;5117639;28;20043;-64
2023/11/28 05:49:59;;;;;;;18.95;13.20;;;;;;;4.37;82.95;99261.03;5117338;28;20084;-63
2023/11/28 05:52:25;;;;;;;18.55;10.95;;;;;;;4.30;82.91;99235.50;5117204;28;20043;-62
2023/11/28 05:54:50;;;;;;;13.40;8.65;;;;;;;4.18;83.88;99242.63;5117007;28;20031;-62
2023/11/28 05:57:16;;;;;;;12.82;8.48;;;;;;;4.32;83.37;99242.25;5117052;27;20168;-64
2023/11/28 05:59:42;;;;;;;14.20;8.77;;;;;;;4.44;82.95;99246.41;5117487;28;20040;-64
2023/11/28 06:02:08;;;;;;;10.93;7.22;;;;;;;4.52;82.13;99251.00;5117414;28;20023;-62
2023/11/28 06:04:34;;;;;;;12.20;8.18;;;;;;;4.48;81.81;99241.75;5117207;28;20028;-62
2023/11/28 06:07:00;;;;;;;14.20;9.05;;;;;;;4.27;83.00;99233.97;5117547;28;20326;-64
2023/11/28 06:09:28;;;;;;;11.43;8.45;;;;;;;4.12;82.79;99216.94;5117304;28;20043;-65
2023/11/28 06:11:54;;;;;;;9.40;6.35;;;;;;;4.08;83.11;99219.00;5117472;28;20397;-63
2023/11/28 06:14:22;;;;;;;10.65;6.72;;;;;;;3.98;84.16;99219.94;5117990;28;20264;-63
2023/11/28 06:16:48;;;;;;;11.43;7.13;;;;;;;3.81;85.27;99206.50;5117922;28;20057;-64
2023/11/28 06:19:14;;;;;;;13.15;8.88;;;;;;;3.37;87.41;99209.47;5118075;27;20043;-65
2023/11/28 06:21:40;;;;;;;17.20;9.73;;;;;;;3.11;88.66;99195.94;5117815;28;20061;-62
2023/11/28 06:24:06;;;;;;;15.02;9.68;;;;;;;3.44;88.13;99197.53;5117089;28;20040;-63
2023/11/28 06:26:31;;;;;;;16.15;9.70;;;;;;;3.55;87.99;99184.34;5116479;28;20318;-63
2023/11/28 06:28:57;;;;;;;9.98;6.55;;;;;;;3.78;86.28;99182.38;5117356;28;20305;-64
2023/11/28 06:31:22;;;;;;;12.23;6.55;;;;;;;3.99;84.77;99182.28;5117174;28;20406;-64
2023/11/28 06:33:49;;;;;;;9.38;6.07;;;;;;;4.08;82.47;99177.06;5116136;28;20063;-62
2023/11/28 06:36:14;;;;;;;9.50;6.25;;;;;;;3.81;83.75;99176.88;5116688;28;20233;-63
2023/11/28 06:38:41;;;;;;;9.85;6.40;;;;;;;3.97;82.99;99171.13;5117324;28;20123;-63
2023/11/28 06:41:07;;;;;;;10.25;6.15;;;;;;;4.12;82.25;99165.38;5116849;28;20046;-65
2023/11/28 06:43:33;;;;;;;9.68;6.70;;;;;;;4.29;81.41;99168.31;5116350;28;20067;-66
2023/11/28 06:46:01;;;;;;;10.23;6.50;;;;;;;4.20;82.06;99169.13;5116209;28;20038;-64
2023/11/28 06:48:27;;;;;;;9.77;5.60;;;;;;;4.38;81.50;99163.09;5115683;27;20051;-64
2023/11/28 06:50:53;;;;;;;10.90;5.63;;;;;;;4.36;81.09;99166.81;5116342;28;20084;-64
2023/11/28 06:53:18;;;;;;;9.98;6.40;;;;;;;4.22;81.34;99178.50;5116119;28;20349;-65
2023/11/28 06:55:43;;;;;;;9.43;6.10;;;;;;;4.12;81.43;99182.88;5115601;28;20068;-65
2023/11/28 06:58:09;;;;;;;8.48;5.35;;;;;;;3.98;82.50;99189.31;5115791;28;20140;-63
2023/11/28 07:00:35;;;;;;;8.60;5.18;;;;;;;3.69;84.26;99170.06;5116395;28;20042;-64
2023/11/28 07:03:01;;;;;;;8.15;5.57;;;;;;;3.51;85.18;99170.69;5116011;28;20030;-64
2023/11/28 07:05:26;;;;;;;8.07;5.72;;;;;;;3.69;85.61;99176.13;5115940;28;20102;-66
2023/11/28 07:07:52;;;;;;;7.03;5.20;;;;;;;3.99;85.26;99182.28;5115494;28;20217;-64
2023/11/28 07:10:18;;;;;;;10.55;5.47;;;;;;;4.09;83.68;99180.53;5115995;28;20035;-63
2023/11/28 07:12:43;;;;;;;7.65;5.40;;;;;;;4.13;83.17;99166.19;5115813;28;20044;-63
2023/11/28 07:15:09;;;;;;;6.97;4.90;;;;;;;4.16;83.20;99160.69;5116181;28;20099;-64
2023/11/28 07:17:35;;;;;;;8.85;5.82;;;;;;;4.13;82.75;99151.31;5115751;28;20036;-66
2023/11/28 07:20:01;;;;;;;10.07;6.00;;;;;;;4.05;83.00;99142.47;5116156;28;20038;-65
2023/11/28 07:22:27;;;;;;;7.25;6.03;;;;;;;4.29;82.62;99150.78;5115127;28;20063;-62
2023/11/28 07:24:52;;;;;;;8.23;5.20;;;;;;;4.37;82.94;99150.13;5115821;28;20032;-64
2023/11/28 07:27:17;;;;;;;7.57;5.68;;;;;;;4.58;82.27;99140.31;5115749;28;20084;-64
2023/11/28 07:29:43;;;;;;;8.73;5.30;;;;;;;4.76;81.24;99135.19;5115428;28;20317;-65
2023/11/28 07:32:08;;;;;;;8.65;5.40;;;;;;;4.75;81.20;99125.66;5115533;28;20037;-65
2023/11/28 07:34:34;;;;;;;9.93;6.10;;;;;;;4.89;80.08;99130.47;5115635;28;20815;-66
2023/11/28 07:37:00;;;;;;;8.50;5.40;;;;;;;4.67;79.88;99120.31;5115880;28;20870;-64
2023/11/28 07:39:25;;;;;;;8.18;6.28;;;;;;;4.36;81.00;99119.63;5115633;28;20028;-65
2023/11/28 07:41:51;;;;;;;10.38;7.22;;;;;;;4.27;82.38;99115.22;5115572;28;20222;-64
2023/11/28 07:44:16;;;;;;;15.52;8.25;;;;;;;4.09;82.09;99112.41;5115795;28;20043;-63
2023/11/28 07:46:42;;;;;;;12.40;9.05;;;;;;;3.91;82.78;99096.53;5115267;28;20035;-66
2023/11/28 07:49:07;;;;;;;18.13;10.10;;;;;;;3.93;83.84;99076.28;5115060;28;20181;-62
2023/11/28 07:51:33;;;;;;;19.40;10.68;;;;;;;3.78;85.29;99069.78;5116212;28;20262;-64
2023/11/28 07:53:58;;;;;;;18.10;10.73;;;;;;;3.84;86.30;99059.56;5117245;28;20251;-64
2023/11/28 07:56:24;;;;;;;18.42;9.82;;;;;;;3.85;86.97;99053.38;5115706;28;20359;-65
2023/11/28 07:58:49;;;;;;;15.68;11.27;;;;;;;3.92;87.34;99037.13;5115741;28;20039;-65
2023/11/28 08:01:16;;;;;;;16.27;10.07;;;;;;;3.80;88.31;99046.88;5115941;28;20352;-64
2023/11/28 08:03:41;;;;;;;16.27;9.63;;;;;;;3.93;87.49;99046.63;5115544;28;20051;-64
2023/11/28 08:06:07;;;;;;;17.92;11.30;;;;;;;4.02;87.22;99043.19;5115019;28;20042;-67
2023/11/28 08:08:33;;;;;;;16.98;10.95;;;;;;;4.22;86.10;99044.88;5118054;28;20032;-65
2023/11/28 08:10:59;;;;;;;17.63;10.48;;;;;;;4.31;84.39;99033.56;5118660;28;20036;-63
2023/11/28 08:13:24;;;;;;;15.32;9.40;;;;;;;4.27;84.24;99040.03;5119027;28;20024;-62
2023/11/28 08:15:52;;;;;;;12.38;9.30;;;;;;;4.26;84.34;99041.00;5118924;28;20206;-64
2023/11/28 08:18:18;;;;;;;15.40;9.15;;;;;;;4.39;84.57;99032.84;5118611;28;20062;-64
2023/11/28 08:20:43;;;;;;;14.93;10.07;;;;;;;3.99;85.00;99017.28;5119487;28;20024;-64
2023/11/28 08:23:08;;;;;;;15.25;7.90;;;;;;;3.74;87.04;99018.63;5118450;28;20035;-63
2023/11/28 08:25:34;;;;;;;10.85;6.18;;;;;;;3.87;88.12;99028.84;5118476;28;20035;-63
2023/11/28 08:27:59;;;;;;;11.30;6.63;;;;;;;4.03;87.95;99032.56;5118397;28;20202;-65
2023/11/28 08:30:25;;;;;;;10.93;6.47;;;;;;;4.02;87.78;99023.06;5118465;28;20031;-65
2023/11/28 08:32:50;;;;;;;12.98;7.63;;;;;;;4.02;88.50;99036.16;5118230;28;20032;-63
2023/11/28 08:35:16;;;;;;;15.77;9.80;;;;;;;3.93;87.14;99036.16;5118137;28;20035;-63
2023/11/28 08:37:42;;;;;;;15.90;10.05;;;;;;;4.18;86.80;99029.56;5118515;28;20036;-64
2023/11/28 08:40:08;;;;;;;18.33;9.82;;;;;;;4.40;86.28;99019.59;5118327;28;20346;-66
2023/11/28 08:42:33;;;;;;;15.23;9.25;;;;;;;4.54;84.94;99007.84;5118628;28;20043;-65
2023/11/28 08:44:59;;;;;;;18.17;9.90;;;;;;;4.67;84.98;99005.75;5120865;28;20027;-64
2023/11/28 08:47:25;;;;;;;16.02;10.30;;;;;;;4.80;84.03;98995.75;5118668;28;20284;-64
2023/11/28 08:49:50;;;;;;;17.63;10.75;;;;;;;4.82;83.72;98999.06;5118381;28;20051;-63
2023/11/28 08:52:16;;;;;;;24.75;16.70;;;;;;;4.95;83.67;98998.75;5119162;28;20048;-64
2023/11/28 08:54:43;;;;;;;19.00;11.43;;;;;;;5.07;83.65;98988.88;5118855;28;20102;-64
2023/11/28 08:57:10;;;;;;;24.13;13.32;;;;;;;5.14;82.68;98982.91;5118966;28;20023;-65
2023/11/28 08:59:38;;;;;;;17.02;9.85;;;;;;;5.17;82.53;98965.22;5118798;28;20031;-63
2023/11/28 09:02:03;;;;;;;12.60;7.32;;;;;;;5.25;81.95;98963.53;5116742;28;20152;-63
2023/11/28 09:04:29;;;;;;;16.15;8.82;;;;;;;5.33;80.12;98953.13;5117946;28;20229;-66
2023/11/28 09:06:54;;;;;;;12.18;8.35;;;;;;;5.41;80.13;98934.84;5117808;28;20471;-64
2023/11/28 09:09:20;;;;;;;63.60;30.98;;;;;;;5.40;78.84;98929.72;5117873;28;20111;-63
2023/11/28 09:11:46;;;;;;;22.02;12.43;;;;;;;5.35;80.11;98924.94;5117636;28;20047;-62
2023/11/28 09:14:11;;;;;;;23.05;13.15;;;;;;;5.28;79.28;98907.28;5117979;28;20047;-64
2023/11/28 09:16:37;;;;;;;25.25;13.38;;;;;;;5.35;80.82;98903.09;5118175;28;20039;-65
2023/11/28 09:19:02;;;;;;;22.65;13.70;;;;;;;5.24;79.79;98875.28;5116743;28;20044;-65
2023/11/28 09:21:28;;;;;;;64.55;28.10;;;;;;;5.30;80.10;98887.81;5119820;28;20255;-64
2023/11/28 09:23:53;;;;;;;21.95;11.98;;;;;;;5.33;80.61;98870.94;5117073;28;20104;-64
2023/11/28 09:26:19;;;;;;;17.17;11.43;;;;;;;5.38;79.80;98866.06;5116981;28;20070;-65
2023/11/28 09:28:44;;;;;;;20.23;13.48;;;;;;;5.43;79.43;98845.41;5117021;28;20036;-65
2023/11/28 09:31:10;;;;;;;19.67;11.98;;;;;;;5.48;79.27;98839.72;5116792;28;20051;-64
2023/11/28 09:33:35;;;;;;;21.52;11.40;;;;;;;5.52;80.42;98835.81;5116795;28;20032;-64
2023/11/28 09:36:01;;;;;;;16.38;10.93;;;;;;;5.48;79.85;98826.59;5117250;28;20039;-64
2023/11/28 09:38:27;;;;;;;11.20;8.40;;;;;;;5.44;80.91;98832.13;5116306;28;20321;-66
2023/11/28 09:40:53;;;;;;;17.13;10.38;;;;;;;5.40;80.21;98829.97;5117398;28;20043;-65
2023/11/28 09:43:26;;;;;;;17.83;10.13;;;;;;;5.51;80.79;98821.84;5116821;28;20044;-63
2023/11/28 09:45:57;;;;;;;15.48;9.75;;;;;;;5.53;80.71;98808.56;5116645;27;20127;-64
2023/11/28 09:48:24;;;;;;;15.77;10.20;;;;;;;5.55;81.23;98793.50;5116420;28;20044;-65
2023/11/28 09:50:51;;;;;;;10.52;7.07;;;;;;;5.64;81.32;98800.44;5116352;28;20031;-65
2023/11/28 09:53:23;;;;;;;8.70;5.93;;;;;;;5.47;81.56;98783.75;5117465;28;20028;-64
2023/11/28 09:55:49;;;;;;;8.07;6.13;;;;;;;5.51;80.02;98784.28;5116487;28;20027;-64
2023/11/28 09:58:14;;;;;;;10.93;6.30;;;;;;;5.47;80.61;98770.63;5116422;28;20065;-64
2023/11/28 10:00:41;;;;;;;13.60;8.07;;;;;;;5.55;80.42;98759.34;5116345;28;20073;-65
2023/11/28 10:03:06;;;;;;;10.00;5.75;;;;;;;5.53;80.58;98764.75;5115974;28;20055;-65
2023/11/28 10:05:32;;;;;;;9.30;6.07;;;;;;;5.52;80.54;98764.91;5116133;28;20324;-64
2023/11/28 10:07:59;;;;;;;8.43;7.07;;;;;;;5.40;80.81;98744.16;5116966;28;20043;-63
2023/11/28 10:10:24;;;;;;;32.80;14.50;;;;;;;5.46;81.83;98719.09;5116275;27;20099;-64
2023/11/28 10:12:51;;;;;;;15.10;7.65;;;;;;;5.59;80.77;98721.31;5115872;28;20076;-63
2023/11/28 10:15:19;;;;;;;10.68;6.57;;;;;;;5.68;80.07;98723.81;5115621;28;20034;-65
2023/11/28 10:17:44;;;;;;;12.95;7.57;;;;;;;5.68;80.35;98718.56;5115244;28;20034;-65
2023/11/28 10:20:10;;;;;;;18.27;9.15;;;;;;;5.73;80.13;98710.22;5115519;28;20031;-63
2023/11/28 10:22:38;;;;;;;7.75;5.88;;;;;;;5.78;80.27;98703.53;5116537;28;20031;-63
2023/11/28 10:25:11;;;;;;;11.95;7.13;;;;;;;5.75;80.40;98695.94;5116020;28;20072;-64
2023/11/28 10:27:41;;;;;;;11.20;6.30;;;;;;;5.57;79.60;98697.00;5114855;28;20099;-64
2023/11/28 10:30:20;;;;;;;10.57;6.22;;;;;;;5.58;80.22;98685.53;5115437;28;20062;-65
2023/11/28 10:32:47;;;;;;;12.48;6.90;;;;;;;5.69;81.01;98669.50;5116025;28;20039;-63
2023/11/28 10:35:12;;;;;;;12.48;6.15;;;;;;;5.74;79.45;98660.16;5114607;28;20127;-63
2023/11/28 10:37:39;;;;;;;11.02;6.38;;;;;;;5.81;78.75;98678.75;5114945;28;20329;-64
2023/11/28 10:40:18;;;;;;;6.72;5.57;;;;;;;5.74;78.86;98657.53;5115318;28;20027;-63
2023/11/28 10:42:44;;;;;;;6.43;5.38;;;;;;;5.83;78.87;98658.38;5114996;28;20036;-63
2023/11/28 10:45:12;;;;;;;10.05;5.78;;;;;;;5.69;79.50;98633.53;5116459;28;20038;-65
2023/11/28 10:47:41;;;;;;;13.90;7.82;;;;;;;5.74;79.19;98620.75;5115965;28;20206;-64
2023/11/28 10:50:08;;;;;;;13.13;8.63;;;;;;;5.84;79.38;98615.38;5115555;28;20043;-63
2023/11/28 10:52:37;;;;;;;12.90;6.90;;;;;;;5.80;79.27;98611.41;5115653;28;20106;-63
2023/11/28 10:55:07;;;;;;;13.07;7.72;;;;;;;5.92;79.39;98604.09;5116376;28;20027;-65
2023/11/28 10:57:39;;;;;;;11.98;8.23;;;;;;;5.99;79.84;98587.53;5115827;28;20047;-65
2023/11/28 11:00:09;;;;;;;12.52;6.35;;;;;;;6.06;79.74;98557.00;5115934;28;20035;-63
2023/11/28 11:02:35;;;;;;;12.88;7.15;;;;;;;6.05;78.70;98557.97;5114749;28;20073;-64
2023/11/28 11:05:06;;;;;;;10.55;6.22;;;;;;;6.12;78.13;98544.19;5115267;28;20031;-63
2023/11/28 11:07:33;;;;;;;9.65;6.45;;;;;;;6.08;77.08;98541.06;5114591;28;20082;-64
2023/11/28 11:10:01;;;;;;;11.45;6.95;;;;;;;6.08;78.57;98535.81;5115515;28;20050;-64
2023/11/28 11:12:27;;;;;;;9.30;6.28;;;;;;;6.35;77.82;98535.53;5115028;28;20031;-65
2023/11/28 11:15:15;;;;;;;8.70;5.95;;;;;;;6.48;77.85;98524.50;5114881;28;20040;-65
2023/11/28 11:17:52;;;;;;;10.35;5.97;;;;;;;6.51;76.15;98529.44;5114857;28;20080;-64
2023/11/28 11:20:22;;;;;;;10.55;6.00;;;;;;;6.72;74.42;98521.03;5115190;28;20039;-64
2023/11/28 11:22:52;;;;;;;15.70;7.63;;;;;;;6.60;75.11;98509.22;5115381;28;20039;-64
2023/11/28 11:25:42;;;;;;;12.02;6.18;;;;;;;6.71;75.00;98514.13;5115758;28;20047;-65
2023/11/28 11:28:08;;;;;;;7.63;4.95;;;;;;;6.75;74.31;98519.88;5114941;28;20043;-65
2023/11/28 11:30:38;;;;;;;6.97;4.63;;;;;;;6.82;73.83;98497.16;5115227;28;20028;-64